Time;durP1;ratioP1;P1;durP2;ratioP2;P2;SDS_P1;SDS_P2;PMS_P1;PMS_P2;Temp;Humidity;BMP_temperature;BMP_pressure;BME280_temperature;BME280_humidity;BME280_pressure;Samples;Min_cycle;Max_cycle;Signal;HPM_P1;HPM_P2
2024/02/29 00:00:18;;;;;;;0.70;0.70;;;;;;;2.42;100.00;99583.44;5032671;28;20514;-57
2024/02/29 00:02:46;;;;;;;0.63;0.63;;;;;;;2.43;100.00;99586.91;5034172;28;20446;-58
2024/02/29 00:05:13;;;;;;;0.60;0.60;;;;;;;2.31;100.00;99578.56;5032008;28;20431;-57
2024/02/29 00:07:41;;;;;;;0.50;0.50;;;;;;;2.18;100.00;99571.25;5033442;28;20053;-57
2024/02/29 00:10:10;;;;;;;0.68;0.68;;;;;;;2.29;100.00;99573.47;5035379;28;20103;-59
2024/02/29 00:12:40;;;;;;;0.60;0.60;;;;;;;2.22;100.00;99571.72;5037113;28;20347;-59
2024/02/29 00:15:08;;;;;;;0.50;0.50;;;;;;;2.33;100.00;99577.41;5029952;28;20041;-57
2024/02/29 00:17:35;;;;;;;0.60;0.60;;;;;;;2.39;100.00;99578.50;5036243;28;20128;-59
2024/02/29 00:20:04;;;;;;;0.60;0.60;;;;;;;2.34;100.00;99571.09;5036272;28;20132;-58
2024/02/29 00:22:31;;;;;;;0.60;0.60;;;;;;;2.22;100.00;99575.19;5037195;28;20044;-58
2024/02/29 00:24:58;;;;;;;0.60;0.60;;;;;;;2.12;100.00;99574.59;5030173;28;20058;-58
2024/02/29 00:27:26;;;;;;;0.52;0.52;;;;;;;2.21;100.00;99578.00;5033015;28;20037;-58
2024/02/29 00:29:54;;;;;;;0.60;0.60;;;;;;;2.22;100.00;99574.34;5029192;28;20073;-58
2024/02/29 00:32:21;;;;;;;0.57;0.57;;;;;;;2.25;100.00;99581.94;5024735;28;20041;-57
2024/02/29 00:34:49;;;;;;;0.60;0.60;;;;;;;2.34;100.00;99583.50;5037178;28;20054;-59
2024/02/29 00:37:16;;;;;;;0.55;0.55;;;;;;;2.19;100.00;99575.53;5028073;28;20034;-59
2024/02/29 00:39:43;;;;;;;0.50;0.50;;;;;;;2.19;100.00;99578.19;5033423;28;20045;-58
2024/02/29 00:42:10;;;;;;;0.60;0.60;;;;;;;2.30;100.00;99567.19;5025307;28;20064;-58
2024/02/29 00:44:37;;;;;;;0.60;0.60;;;;;;;2.21;100.00;99573.53;5030606;28;20502;-58
2024/02/29 00:47:07;;;;;;;0.60;0.60;;;;;;;2.28;100.00;99563.06;5029952;28;20046;-58
2024/02/29 00:49:34;;;;;;;0.50;0.50;;;;;;;2.23;100.00;99563.59;5038119;28;20084;-58
2024/02/29 00:52:02;;;;;;;0.55;0.55;;;;;;;2.33;100.00;99561.53;5034813;28;20128;-58
2024/02/29 00:54:29;;;;;;;0.50;0.50;;;;;;;2.29;100.00;99560.22;5034781;28;20060;-58
2024/02/29 00:56:56;;;;;;;0.63;0.63;;;;;;;2.26;100.00;99555.31;5033477;28;21577;-59
2024/02/29 00:59:23;;;;;;;0.40;0.40;;;;;;;2.33;100.00;99553.59;5034459;28;20041;-57
2024/02/29 01:01:51;;;;;;;0.50;0.50;;;;;;;2.29;100.00;99557.59;5031466;28;20041;-58
2024/02/29 01:04:19;;;;;;;0.60;0.60;;;;;;;2.31;100.00;99558.22;5048571;28;20099;-59
2024/02/29 01:06:46;;;;;;;0.50;0.50;;;;;;;2.30;100.00;99555.78;5036701;28;20037;-58
2024/02/29 01:09:14;;;;;;;0.60;0.60;;;;;;;2.25;100.00;99548.38;5032349;28;20091;-58
2024/02/29 01:11:41;;;;;;;0.60;0.60;;;;;;;2.35;100.00;99553.41;5032806;28;20049;-58
2024/02/29 01:14:08;;;;;;;0.50;0.50;;;;;;;2.38;100.00;99547.75;5026969;28;20507;-59
2024/02/29 01:16:35;;;;;;;0.57;0.57;;;;;;;2.23;100.00;99550.38;5037422;28;20049;-58
2024/02/29 01:19:05;;;;;;;0.52;0.52;;;;;;;2.18;100.00;99551.94;5036788;28;20056;-59
2024/02/29 01:21:33;;;;;;;0.60;0.60;;;;;;;2.22;100.00;99548.75;5028905;28;20628;-58
2024/02/29 01:24:00;;;;;;;0.60;0.60;;;;;;;2.52;100.00;99543.47;5033827;28;20092;-58
2024/02/29 01:26:28;;;;;;;0.50;0.50;;;;;;;2.48;100.00;99542.19;5036707;28;20090;-58
2024/02/29 01:28:56;;;;;;;0.60;0.60;;;;;;;2.31;100.00;99531.78;5032429;28;20115;-58
2024/02/29 01:31:23;;;;;;;0.50;0.50;;;;;;;2.19;100.00;99535.06;5030553;28;20524;-57
2024/02/29 01:33:50;;;;;;;0.60;0.60;;;;;;;2.26;100.00;99538.63;5031734;28;20056;-58
2024/02/29 01:36:17;;;;;;;0.60;0.60;;;;;;;2.31;100.00;99534.41;5030235;28;20065;-58
2024/02/29 01:38:46;;;;;;;0.50;0.50;;;;;;;2.41;100.00;99525.41;5037198;28;20053;-60
2024/02/29 01:41:14;;;;;;;0.50;0.50;;;;;;;2.43;100.00;99523.41;5040559;28;20037;-58
2024/02/29 01:43:51;;;;;;;0.70;0.70;;;;;;;2.53;100.00;99518.66;5030540;28;20143;-58
2024/02/29 01:46:18;;;;;;;0.60;0.60;;;;;;;2.40;100.00;99515.81;5027967;28;20627;-57
2024/02/29 01:48:45;;;;;;;0.50;0.50;;;;;;;2.67;100.00;99515.19;5029952;28;20088;-58
2024/02/29 01:51:12;;;;;;;0.60;0.60;;;;;;;2.59;100.00;99517.91;5033948;28;20582;-58
2024/02/29 01:53:39;;;;;;;0.60;0.60;;;;;;;2.59;100.00;99517.91;5040275;28;20158;-58
2024/02/29 01:56:11;;;;;;;0.50;0.50;;;;;;;2.59;100.00;99508.13;5028861;28;20056;-58
2024/02/29 01:58:39;;;;;;;0.50;0.50;;;;;;;2.49;100.00;99504.13;5032505;28;20051;-58
2024/02/29 02:01:06;;;;;;;0.50;0.50;;;;;;;2.40;100.00;99497.28;5050755;28;20049;-58
2024/02/29 02:03:34;;;;;;;0.60;0.60;;;;;;;2.46;100.00;99496.56;5029465;28;20045;-58
2024/02/29 02:06:01;;;;;;;0.55;0.55;;;;;;;2.44;100.00;99490.66;5039404;28;20499;-58
2024/02/29 02:08:30;;;;;;;0.60;0.60;;;;;;;2.48;100.00;99489.28;5036707;28;20049;-59
2024/02/29 02:10:57;;;;;;;0.60;0.60;;;;;;;2.49;100.00;99483.78;5032160;28;20495;-58
2024/02/29 02:13:25;;;;;;;0.52;0.52;;;;;;;2.59;100.00;99480.88;5039897;28;20151;-58
2024/02/29 02:15:52;;;;;;;0.60;0.60;;;;;;;2.66;100.00;99486.25;5033473;28;20475;-58
2024/02/29 02:18:19;;;;;;;0.50;0.50;;;;;;;2.48;100.00;99474.22;5026836;28;20114;-58
2024/02/29 02:20:49;;;;;;;0.52;0.52;;;;;;;2.67;100.00;99475.50;5051399;28;20049;-58
2024/02/29 02:23:16;;;;;;;0.50;0.50;;;;;;;2.69;100.00;99472.63;5034979;28;20065;-59
2024/02/29 02:25:43;;;;;;;0.60;0.60;;;;;;;2.69;100.00;99470.81;5034545;28;20041;-59
2024/02/29 02:28:11;;;;;;;0.50;0.50;;;;;;;2.77;100.00;99462.78;5041122;28;20102;-59
2024/02/29 02:30:39;;;;;;;0.57;0.57;;;;;;;2.49;100.00;99462.63;5035876;28;20049;-59
2024/02/29 02:33:06;;;;;;;0.60;0.60;;;;;;;2.66;100.00;99465.06;5029416;28;20578;-59
2024/02/29 02:35:34;;;;;;;0.50;0.50;;;;;;;2.61;100.00;99468.28;5033044;28;20049;-58
2024/02/29 02:38:04;;;;;;;0.47;0.47;;;;;;;2.61;100.00;99465.63;5043879;28;20526;-58
2024/02/29 02:40:31;;;;;;;0.50;0.50;;;;;;;2.56;100.00;99457.44;5028743;28;20052;-58
2024/02/29 02:42:58;;;;;;;0.60;0.60;;;;;;;2.54;100.00;99456.78;5032927;28;20147;-58
2024/02/29 02:45:25;;;;;;;0.52;0.52;;;;;;;2.63;100.00;99455.69;5028679;28;20060;-59
2024/02/29 02:47:52;;;;;;;0.60;0.60;;;;;;;2.50;100.00;99458.19;5029670;28;20044;-59
2024/02/29 02:50:19;;;;;;;0.60;0.60;;;;;;;2.37;100.00;99451.72;5037077;28;20060;-59
2024/02/29 02:52:47;;;;;;;0.60;0.60;;;;;;;2.48;100.00;99452.25;5033514;28;20041;-58
2024/02/29 02:55:15;;;;;;;0.60;0.60;;;;;;;2.41;100.00;99446.03;5028549;28;20045;-59
2024/02/29 02:57:43;;;;;;;0.60;0.60;;;;;;;2.38;100.00;99448.03;5034012;28;20048;-59
2024/02/29 03:00:11;;;;;;;0.50;0.50;;;;;;;2.43;100.00;99451.97;5028175;28;20050;-59
2024/02/29 03:02:39;;;;;;;0.70;0.70;;;;;;;2.52;100.00;99443.75;5019530;28;20091;-58
2024/02/29 03:05:07;;;;;;;0.50;0.50;;;;;;;2.43;100.00;99441.41;5033915;28;20049;-58
2024/02/29 03:07:34;;;;;;;0.50;0.50;;;;;;;2.21;100.00;99438.66;5034583;28;20066;-57
2024/02/29 03:10:01;;;;;;;0.50;0.50;;;;;;;2.33;100.00;99434.56;5035358;28;20045;-58
2024/02/29 03:12:29;;;;;;;0.52;0.52;;;;;;;2.37;100.00;99430.53;5031371;28;20509;-58
2024/02/29 03:14:57;;;;;;;0.50;0.50;;;;;;;2.15;100.00;99427.00;5039667;28;20045;-57
2024/02/29 03:17:24;;;;;;;0.60;0.60;;;;;;;2.15;100.00;99419.06;5034309;28;20044;-58
2024/02/29 03:19:51;;;;;;;0.50;0.50;;;;;;;1.89;100.00;99416.84;5035991;28;20045;-58
2024/02/29 03:22:18;;;;;;;0.50;0.50;;;;;;;1.94;100.00;99418.97;5031606;28;20029;-58
2024/02/29 03:24:46;;;;;;;0.60;0.60;;;;;;;1.92;100.00;99419.16;5038269;28;20069;-60
2024/02/29 03:27:13;;;;;;;0.40;0.40;;;;;;;1.98;100.00;99419.44;5035388;28;20048;-58
2024/02/29 03:29:43;;;;;;;0.50;0.50;;;;;;;1.93;100.00;99418.16;5033289;28;20506;-59
2024/02/29 03:32:10;;;;;;;0.60;0.60;;;;;;;1.82;100.00;99415.97;5035008;28;20118;-59
2024/02/29 03:34:37;;;;;;;0.55;0.55;;;;;;;1.90;100.00;99412.41;5032344;28;20048;-57
2024/02/29 03:37:04;;;;;;;0.57;0.57;;;;;;;1.84;100.00;99413.13;5040592;28;20054;-58
2024/02/29 03:39:31;;;;;;;0.50;0.50;;;;;;;1.68;100.00;99408.84;5037470;28;20045;-59
2024/02/29 03:41:58;;;;;;;0.50;0.50;;;;;;;1.64;100.00;99402.25;5032948;28;20050;-59
2024/02/29 03:44:25;;;;;;;0.55;0.55;;;;;;;1.49;100.00;99394.31;5036750;28;20150;-59
2024/02/29 03:46:55;;;;;;;0.55;0.55;;;;;;;1.39;100.00;99399.84;5035475;28;20091;-59
2024/02/29 03:49:22;;;;;;;0.50;0.50;;;;;;;1.42;100.00;99391.59;5032585;28;20056;-59
2024/02/29 03:51:49;;;;;;;0.60;0.60;;;;;;;1.43;100.00;99398.50;5036887;28;20511;-59
2024/02/29 03:54:16;;;;;;;0.65;0.65;;;;;;;1.45;100.00;99393.88;5040014;28;20588;-59
2024/02/29 03:56:43;;;;;;;0.60;0.60;;;;;;;1.39;100.00;99389.28;5041925;28;20103;-59
2024/02/29 03:59:10;;;;;;;0.60;0.60;;;;;;;1.36;100.00;99392.28;5043241;28;20099;-59
2024/02/29 04:01:37;;;;;;;0.50;0.50;;;;;;;1.27;100.00;99393.34;5038901;28;20052;-59
2024/02/29 04:04:06;;;;;;;0.50;0.50;;;;;;;1.38;100.00;99392.13;5037802;28;20124;-57
2024/02/29 04:06:33;;;;;;;0.68;0.68;;;;;;;1.39;100.00;99384.00;5037878;28;20045;-58
2024/02/29 04:09:00;;;;;;;0.40;0.40;;;;;;;1.31;100.00;99386.72;5034606;28;20164;-59
2024/02/29 04:11:27;;;;;;;0.60;0.60;;;;;;;1.29;100.00;99388.72;5035583;28;20076;-59
2024/02/29 04:13:54;;;;;;;0.50;0.50;;;;;;;1.27;100.00;99393.34;5039135;28;20041;-58
2024/02/29 04:16:22;;;;;;;0.52;0.52;;;;;;;1.20;100.00;99387.13;5030536;28;20091;-59
2024/02/29 04:18:49;;;;;;;0.50;0.50;;;;;;;1.31;100.00;99383.25;5035601;28;20450;-59
2024/02/29 04:21:18;;;;;;;0.60;0.60;;;;;;;1.16;100.00;99377.94;5035946;28;20045;-58
2024/02/29 04:23:45;;;;;;;0.70;0.70;;;;;;;1.11;100.00;99375.03;5035788;28;20131;-59
2024/02/29 04:26:12;;;;;;;0.70;0.70;;;;;;;1.04;100.00;99370.44;5033912;28;20737;-58
2024/02/29 04:28:39;;;;;;;0.60;0.60;;;;;;;1.06;100.00;99360.53;5034043;28;20057;-58
2024/02/29 04:31:06;;;;;;;0.60;0.60;;;;;;;0.95;100.00;99360.13;5032528;28;20045;-58
2024/02/29 04:33:33;;;;;;;0.70;0.70;;;;;;;0.95;100.00;99353.03;5033885;28;20080;-58
2024/02/29 04:36:00;;;;;;;0.60;0.60;;;;;;;0.89;100.00;99358.19;5034408;28;20129;-58
2024/02/29 04:38:29;;;;;;;0.60;0.60;;;;;;;0.81;100.00;99356.44;5041747;28;20484;-58
2024/02/29 04:40:56;;;;;;;0.52;0.52;;;;;;;0.78;100.00;99356.81;5026288;28;20039;-59
2024/02/29 04:43:23;;;;;;;0.60;0.60;;;;;;;0.73;100.00;99351.22;5029731;28;20061;-59
2024/02/29 04:45:50;;;;;;;0.60;0.60;;;;;;;0.66;100.00;99358.19;5031145;28;20053;-58
2024/02/29 04:48:17;;;;;;;0.65;0.65;;;;;;;0.71;100.00;99353.22;5031509;28;20067;-59
2024/02/29 04:50:44;;;;;;;0.70;0.70;;;;;;;0.73;100.00;99353.88;5033224;28;20049;-58
2024/02/29 04:53:11;;;;;;;0.60;0.60;;;;;;;0.77;100.00;99357.78;5038708;28;20141;-59
2024/02/29 04:55:40;;;;;;;0.60;0.60;;;;;;;0.76;100.00;99354.31;5033681;28;20209;-59
2024/02/29 04:58:08;;;;;;;0.50;0.50;;;;;;;0.75;100.00;99352.69;5033252;28;20049;-59
2024/02/29 05:00:35;;;;;;;0.50;0.50;;;;;;;0.72;100.00;99341.66;5031757;28;20052;-59
2024/02/29 05:03:02;;;;;;;0.70;0.70;;;;;;;0.71;100.00;99337.38;5037468;28;20148;-58
2024/02/29 05:05:29;;;;;;;0.60;0.60;;;;;;;0.67;100.00;99334.25;5029325;28;20048;-58
2024/02/29 05:07:57;;;;;;;0.60;0.60;;;;;;;0.63;100.00;99338.28;5032038;28;20499;-58
2024/02/29 05:10:24;;;;;;;0.60;0.60;;;;;;;0.53;100.00;99333.22;5032764;28;20060;-59
2024/02/29 05:12:53;;;;;;;0.70;0.70;;;;;;;0.51;100.00;99329.94;5032457;28;20658;-58
2024/02/29 05:15:22;;;;;;;0.50;0.50;;;;;;;0.53;100.00;99335.84;5033901;28;20073;-58
2024/02/29 05:17:50;;;;;;;0.65;0.65;;;;;;;0.62;100.00;99326.91;5032390;28;20045;-58
2024/02/29 05:20:17;;;;;;;0.70;0.70;;;;;;;0.51;100.00;99323.84;5038349;28;20045;-58
2024/02/29 05:22:44;;;;;;;0.70;0.70;;;;;;;0.48;100.00;99330.28;5036034;28;20103;-58
2024/02/29 05:25:11;;;;;;;0.70;0.70;;;;;;;0.37;100.00;99326.22;5027243;28;20420;-58
2024/02/29 05:27:38;;;;;;;0.70;0.70;;;;;;;0.39;100.00;99328.69;5033498;28;20124;-58
2024/02/29 05:30:08;;;;;;;0.80;0.80;;;;;;;0.53;100.00;99330.59;5037107;28;20048;-59
2024/02/29 05:32:36;;;;;;;0.70;0.70;;;;;;;0.48;100.00;99321.56;5028034;28;20131;-58
2024/02/29 05:35:04;;;;;;;0.70;0.70;;;;;;;0.44;100.00;99321.06;5025583;28;20053;-58
2024/02/29 05:37:31;;;;;;;0.65;0.65;;;;;;;0.50;100.00;99323.03;5035395;28;20124;-58
2024/02/29 05:39:59;;;;;;;0.70;0.70;;;;;;;0.48;100.00;99325.00;5029741;28;20147;-59
2024/02/29 05:42:28;;;;;;;0.75;0.75;;;;;;;0.50;100.00;99320.38;5030609;28;20053;-59
2024/02/29 05:44:55;;;;;;;0.70;0.70;;;;;;;0.59;100.00;99311.41;5032767;28;20033;-59
2024/02/29 05:47:23;;;;;;;0.70;0.70;;;;;;;0.53;100.00;99316.59;5032849;28;20045;-58
2024/02/29 05:49:51;;;;;;;0.65;0.65;;;;;;;0.48;100.00;99309.19;5040176;28;20057;-59
2024/02/29 05:52:19;;;;;;;0.60;0.60;;;;;;;0.29;100.00;99299.91;5028129;28;20068;-58
2024/02/29 05:54:46;;;;;;;0.70;0.70;;;;;;;0.32;100.00;99302.19;5029762;28;20645;-59
2024/02/29 05:57:14;;;;;;;0.68;0.68;;;;;;;0.29;100.00;99304.38;5035674;28;20056;-59
2024/02/29 05:59:41;;;;;;;0.60;0.60;;;;;;;0.24;100.00;99302.25;5033329;28;20175;-58
2024/02/29 06:02:10;;;;;;;0.60;0.60;;;;;;;0.25;100.00;99305.69;5030517;28;20038;-60
2024/02/29 06:04:38;;;;;;;0.70;0.70;;;;;;;0.17;100.00;99296.03;5017506;28;20406;-58
2024/02/29 06:07:06;;;;;;;0.60;0.60;;;;;;;0.16;100.00;99297.84;5032695;28;20052;-59
2024/02/29 06:09:35;;;;;;;0.73;0.73;;;;;;;0.17;100.00;99288.94;5028998;28;20404;-59
2024/02/29 06:12:02;;;;;;;0.80;0.80;;;;;;;0.19;100.00;99280.84;5033144;28;20041;-59
2024/02/29 06:14:29;;;;;;;0.70;0.70;;;;;;;0.15;100.00;99284.81;5033337;28;20037;-58
2024/02/29 06:16:56;;;;;;;0.70;0.70;;;;;;;0.13;100.00;99287.66;5030391;28;20166;-60
2024/02/29 06:19:23;;;;;;;0.70;0.70;;;;;;;0.20;100.00;99283.34;5030964;28;20069;-60
2024/02/29 06:21:52;;;;;;;0.63;0.63;;;;;;;0.41;100.00;99295.06;5044693;28;21030;-59
2024/02/29 06:24:19;;;;;;;0.70;0.70;;;;;;;0.20;100.00;99291.25;5031948;28;20041;-59
2024/02/29 06:26:47;;;;;;;0.63;0.63;;;;;;;0.41;100.00;99292.41;5039141;28;20140;-59
2024/02/29 06:29:14;;;;;;;0.80;0.80;;;;;;;0.37;100.00;99296.41;5031968;28;20139;-58
2024/02/29 06:31:42;;;;;;;0.70;0.70;;;;;;;0.39;100.00;99291.78;5032656;28;20075;-59
2024/02/29 06:34:09;;;;;;;0.80;0.80;;;;;;;0.52;100.00;99297.28;5045667;28;20109;-59
2024/02/29 06:36:36;;;;;;;0.85;0.85;;;;;;;0.57;100.00;99294.13;5038909;28;20072;-58
2024/02/29 06:39:07;;;;;;;0.80;0.80;;;;;;;0.58;100.00;99287.84;5029128;28;20041;-58
2024/02/29 06:41:36;;;;;;;0.55;0.55;;;;;;;0.48;100.00;99293.38;5028941;28;20054;-59
2024/02/29 06:44:05;;;;;;;0.70;0.70;;;;;;;0.45;100.00;99301.63;5029500;28;20042;-58
2024/02/29 06:46:34;;;;;;;0.70;0.70;;;;;;;0.60;100.00;99289.31;5036265;28;20130;-60
2024/02/29 06:49:04;;;;;;;0.60;0.60;;;;;;;0.59;100.00;99292.94;5034606;28;20053;-58
2024/02/29 06:51:33;;;;;;;0.80;0.80;;;;;;;0.74;100.00;99294.81;5038461;28;20095;-58
2024/02/29 06:54:00;;;;;;;0.63;0.63;;;;;;;0.76;100.00;99292.81;5024564;28;20046;-59
2024/02/29 06:56:28;;;;;;;0.75;0.75;;;;;;;0.72;100.00;99296.81;5034934;28;20060;-59
2024/02/29 06:58:55;;;;;;;0.63;0.63;;;;;;;0.88;100.00;99291.41;5030153;28;20041;-59
2024/02/29 07:01:23;;;;;;;0.70;0.70;;;;;;;0.90;100.00;99288.56;5029469;28;20676;-58
2024/02/29 07:03:50;;;;;;;0.70;0.70;;;;;;;1.02;100.00;99285.34;5029213;28;20120;-58
2024/02/29 07:06:18;;;;;;;0.70;0.70;;;;;;;1.40;100.00;99289.72;5024101;28;20103;-58
2024/02/29 07:08:45;;;;;;;0.70;0.70;;;;;;;1.45;100.00;99285.56;5032730;28;20602;-58
2024/02/29 07:11:13;;;;;;;0.60;0.60;;;;;;;1.58;100.00;99286.75;5024023;28;20337;-58
2024/02/29 07:13:44;;;;;;;0.60;0.60;;;;;;;1.82;100.00;99283.81;5032364;28;20222;-58
2024/02/29 07:16:11;;;;;;;0.60;0.60;;;;;;;1.97;100.00;99282.97;5033851;28;20390;-58
2024/02/29 07:18:41;;;;;;;0.70;0.70;;;;;;;2.32;100.00;99282.16;5022509;28;20069;-58
2024/02/29 07:21:08;;;;;;;0.60;0.60;;;;;;;2.78;100.00;99276.47;5021997;28;20774;-58
2024/02/29 07:23:36;;;;;;;0.70;0.70;;;;;;;1.79;100.00;99278.88;5013152;28;20045;-58
2024/02/29 07:26:04;;;;;;;0.60;0.60;;;;;;;2.33;100.00;99270.56;5021322;28;20037;-58
2024/02/29 07:28:33;;;;;;;0.73;0.73;;;;;;;2.50;100.00;99268.50;5033095;28;20068;-59
2024/02/29 07:31:02;;;;;;;0.80;0.80;;;;;;;3.50;100.00;99263.13;5033092;28;20172;-60
2024/02/29 07:33:31;;;;;;;0.70;0.70;;;;;;;4.23;100.00;99266.88;5032143;28;20107;-58
2024/02/29 07:35:59;;;;;;;0.60;0.60;;;;;;;3.72;100.00;99256.72;5023193;28;20052;-59
2024/02/29 07:38:26;;;;;;;0.60;0.60;;;;;;;3.80;100.00;99255.72;5024953;28;20045;-60
2024/02/29 07:40:53;;;;;;;0.60;0.60;;;;;;;4.09;100.00;99247.47;5032523;28;20523;-59
2024/02/29 07:43:21;;;;;;;0.60;0.60;;;;;;;4.01;100.00;99247.63;5026669;28;20064;-58
2024/02/29 07:45:48;;;;;;;0.63;0.63;;;;;;;4.01;100.00;99246.81;5040081;28;20447;-59
2024/02/29 07:48:16;;;;;;;0.68;0.68;;;;;;;4.27;100.00;99241.59;5029145;28;20494;-60
2024/02/29 07:50:45;;;;;;;0.50;0.50;;;;;;;4.25;100.00;99245.47;5029082;28;20045;-59
2024/02/29 07:53:12;;;;;;;0.65;0.65;;;;;;;5.29;100.00;99246.69;5033377;28;20558;-58
2024/02/29 07:55:40;;;;;;;0.65;0.65;;;;;;;5.21;100.00;99249.56;5037321;28;20412;-59
2024/02/29 07:58:09;;;;;;;0.70;0.70;;;;;;;5.29;100.00;99250.19;5032154;28;20103;-58
2024/02/29 08:00:37;;;;;;;0.50;0.50;;;;;;;5.66;99.75;99245.16;5034112;28;20566;-60
2024/02/29 08:03:05;;;;;;;0.60;0.60;;;;;;;3.99;100.00;99239.03;5041189;28;20052;-59
2024/02/29 08:05:34;;;;;;;0.55;0.55;;;;;;;5.45;100.00;99242.78;5040594;28;20048;-58
2024/02/29 08:08:05;;;;;;;0.50;0.50;;;;;;;6.15;96.29;99238.41;5031868;28;20165;-60
2024/02/29 08:10:32;;;;;;;0.50;0.50;;;;;;;6.80;91.05;99237.38;5033104;28;20547;-59
2024/02/29 08:12:59;;;;;;;0.50;0.50;;;;;;;7.21;89.81;99236.78;5035301;28;20249;-58
2024/02/29 08:15:26;;;;;;;0.50;0.50;;;;;;;6.86;90.28;99233.81;5041599;28;20056;-58
2024/02/29 08:17:54;;;;;;;0.57;0.57;;;;;;;6.70;90.44;99238.66;5036118;28;20056;-60
2024/02/29 08:20:25;;;;;;;0.50;0.50;;;;;;;6.67;90.15;99241.78;5036421;28;20091;-59
2024/02/29 08:22:56;;;;;;;0.40;0.40;;;;;;;6.76;91.61;99239.63;5032060;28;20053;-60
2024/02/29 08:25:26;;;;;;;0.40;0.40;;;;;;;5.58;94.71;99240.06;5037772;28;20049;-59
2024/02/29 08:27:53;;;;;;;0.60;0.60;;;;;;;6.09;97.28;99233.13;5020844;28;20037;-59
2024/02/29 08:30:20;;;;;;;0.50;0.50;;;;;;;7.27;90.34;99227.91;5036702;28;20042;-58
2024/02/29 08:32:48;;;;;;;0.40;0.40;;;;;;;6.63;90.91;99227.25;5038912;28;20052;-59
2024/02/29 08:35:16;;;;;;;0.40;0.40;;;;;;;5.62;93.17;99223.50;5035087;28;20048;-60
2024/02/29 08:37:44;;;;;;;0.50;0.50;;;;;;;6.83;92.61;99212.97;5030772;28;20037;-59
2024/02/29 08:40:14;;;;;;;0.50;0.50;;;;;;;7.11;88.81;99210.66;5019331;28;20061;-59
2024/02/29 08:42:41;;;;;;;0.50;0.50;;;;;;;7.81;86.97;99205.97;5024827;28;20061;-59
2024/02/29 08:45:09;;;;;;;0.50;0.50;;;;;;;7.97;85.02;99213.38;5025752;28;20048;-59
2024/02/29 08:47:37;;;;;;;0.40;0.40;;;;;;;7.28;86.47;99210.88;5029007;28;20413;-59
2024/02/29 08:50:05;;;;;;;0.40;0.40;;;;;;;6.16;91.30;99213.44;5034261;28;20144;-59
2024/02/29 08:52:33;;;;;;;0.50;0.50;;;;;;;6.93;90.90;99209.78;5030015;28;20110;-59
2024/02/29 08:55:00;;;;;;;0.40;0.40;;;;;;;6.65;89.97;99205.72;5034927;28;20056;-59
2024/02/29 08:57:29;;;;;;;0.30;0.30;;;;;;;7.27;86.93;99205.78;5030739;28;20056;-59
2024/02/29 08:59:58;;;;;;;0.50;0.50;;;;;;;6.47;86.52;99195.84;5024055;28;20042;-59
2024/02/29 09:02:25;;;;;;;0.40;0.40;;;;;;;6.29;89.29;99199.25;5029949;28;20099;-59
2024/02/29 09:04:53;;;;;;;0.52;0.52;;;;;;;5.96;94.08;99199.44;5037464;28;20125;-59
2024/02/29 09:07:20;;;;;;;0.55;0.55;;;;;;;7.02;90.77;99203.97;5031565;28;20037;-58
2024/02/29 09:09:47;;;;;;;0.47;0.47;;;;;;;5.98;93.88;99194.72;5036698;28;20049;-59
2024/02/29 09:12:17;;;;;;;0.50;0.50;;;;;;;6.91;91.41;99189.53;5030943;28;20136;-59
2024/02/29 09:14:48;;;;;;;;;;;;;;;8.14;84.24;99187.66;5031174;28;20057;-59
2024/02/29 09:17:15;;;;;;;0.50;0.50;;;;;;;8.05;82.10;99180.19;5032547;28;19929;-59
2024/02/29 09:19:42;;;;;;;0.40;0.40;;;;;;;8.23;80.48;99182.78;5028952;28;20487;-59
2024/02/29 09:22:10;;;;;;;0.43;0.43;;;;;;;8.03;82.21;99168.94;5035272;28;20067;-59
2024/02/29 09:24:39;;;;;;;0.40;0.40;;;;;;;7.46;85.98;99163.91;5030432;28;20048;-59
2024/02/29 09:27:06;;;;;;;0.40;0.40;;;;;;;8.27;81.59;99159.94;5037687;28;20045;-59
2024/02/29 09:29:33;;;;;;;0.30;0.30;;;;;;;8.70;78.90;99163.41;5028460;28;20132;-59
2024/02/29 09:32:02;;;;;;;0.40;0.40;;;;;;;9.15;79.39;99165.47;5031517;28;20131;-59
2024/02/29 09:34:30;;;;;;;0.35;0.35;;;;;;;8.54;76.12;99154.22;5040641;28;20044;-59
2024/02/29 09:36:59;;;;;;;0.40;0.40;;;;;;;8.29;78.73;99149.84;5023417;28;20046;-59
2024/02/29 09:39:26;;;;;;;0.30;0.30;;;;;;;8.17;80.69;99146.34;5032278;28;20052;-59
2024/02/29 09:41:53;;;;;;;0.30;0.30;;;;;;;7.43;80.22;99135.84;5033951;28;20044;-59
2024/02/29 09:44:20;;;;;;;0.40;0.40;;;;;;;8.04;80.12;99139.34;5040384;28;20044;-61
2024/02/29 09:46:48;;;;;;;0.50;0.50;;;;;;;8.21;78.16;99139.50;5030964;28;20495;-59
2024/02/29 09:49:16;;;;;;;0.40;0.40;;;;;;;8.41;77.22;99133.88;5032544;28;20317;-57
2024/02/29 09:51:46;;;;;;;0.40;0.40;;;;;;;8.95;76.70;99129.22;5027586;28;20488;-57
2024/02/29 09:54:15;;;;;;;0.38;0.38;;;;;;;8.08;79.63;99123.69;5032201;28;20052;-58
2024/02/29 09:56:42;;;;;;;0.40;0.40;;;;;;;8.09;79.95;99118.13;5036168;28;20045;-57
2024/02/29 09:59:10;;;;;;;0.40;0.40;;;;;;;9.04;77.15;99121.69;5034505;28;20760;-57
2024/02/29 10:01:39;;;;;;;0.30;0.30;;;;;;;8.05;81.81;99114.28;5033002;28;20045;-58
2024/02/29 10:04:07;;;;;;;0.20;0.20;;;;;;;8.04;80.93;99114.50;5034897;28;20686;-58
2024/02/29 10:06:35;;;;;;;0.40;0.40;;;;;;;8.99;77.35;99114.34;5030979;28;20225;-57
2024/02/29 10:09:03;;;;;;;0.40;0.40;;;;;;;9.00;75.80;99109.81;5023382;28;20163;-57
2024/02/29 10:11:30;;;;;;;0.30;0.30;;;;;;;8.80;78.62;99112.88;5018785;28;20141;-57
2024/02/29 10:13:58;;;;;;;0.30;0.30;;;;;;;8.61;75.49;99101.47;5027818;28;20045;-58
2024/02/29 10:16:25;;;;;;;0.40;0.40;;;;;;;7.61;81.74;99088.84;5030933;28;20049;-59
2024/02/29 10:18:52;;;;;;;0.40;0.40;;;;;;;7.30;84.85;99088.84;5029381;28;20116;-58
2024/02/29 10:21:20;;;;;;;0.30;0.30;;;;;;;7.91;80.97;99092.31;5040892;28;20114;-59
2024/02/29 10:23:48;;;;;;;0.40;0.40;;;;;;;8.34;78.70;99096.56;5029104;28;20048;-58
2024/02/29 10:26:15;;;;;;;0.40;0.40;;;;;;;8.20;77.97;99092.47;5033107;28;20769;-58
2024/02/29 10:28:44;;;;;;;0.40;0.40;;;;;;;8.40;77.66;99081.50;5026588;28;20075;-58
2024/02/29 10:31:11;;;;;;;0.40;0.40;;;;;;;8.46;74.03;99082.44;5037781;28;20540;-59
2024/02/29 10:33:38;;;;;;;0.40;0.40;;;;;;;8.04;80.71;99074.47;5031840;28;20513;-58
2024/02/29 10:36:13;;;;;;;0.40;0.40;;;;;;;8.96;76.25;99071.22;5035107;28;20049;-58
2024/02/29 10:38:40;;;;;;;0.32;0.32;;;;;;;8.58;75.01;99073.38;5028958;28;20064;-58
2024/02/29 10:41:08;;;;;;;0.40;0.40;;;;;;;8.24;78.88;99066.97;5033041;28;20065;-58
2024/02/29 10:43:35;;;;;;;0.40;0.40;;;;;;;8.18;79.60;99068.69;5025378;28;20450;-58
2024/02/29 10:46:05;;;;;;;0.30;0.30;;;;;;;8.79;73.54;99069.31;5035063;28;20128;-58
2024/02/29 10:48:39;;;;;;;0.30;0.30;;;;;;;9.27;76.84;99061.97;5032724;28;20045;-58
2024/02/29 10:51:10;;;;;;;0.43;0.43;;;;;;;8.99;76.72;99060.91;5025171;28;20041;-58
2024/02/29 10:53:40;;;;;;;0.30;0.30;;;;;;;9.87;74.73;99047.28;5026065;28;20056;-58
2024/02/29 10:56:14;;;;;;;0.30;0.30;;;;;;;9.32;73.63;99047.91;5033836;28;20253;-58
2024/02/29 10:58:42;;;;;;;0.40;0.40;;;;;;;9.22;73.14;99046.63;5037273;28;20095;-58
2024/02/29 11:01:09;;;;;;;0.30;0.30;;;;;;;9.48;71.68;99042.59;5033250;28;20139;-57
2024/02/29 11:03:36;;;;;;;0.22;0.22;;;;;;;8.75;76.26;99046.75;5033934;28;20046;-58
2024/02/29 11:06:04;;;;;;;0.20;0.20;;;;;;;9.50;71.90;99048.50;5034542;28;20037;-58
2024/02/29 11:08:31;;;;;;;0.30;0.30;;;;;;;9.48;74.36;99044.44;5029175;28;20045;-57
2024/02/29 11:10:58;;;;;;;0.30;0.30;;;;;;;10.25;71.93;99041.19;5032227;28;20077;-58
2024/02/29 11:13:29;;;;;;;0.30;0.30;;;;;;;9.92;72.01;99028.63;5024184;28;20049;-58
2024/02/29 11:15:56;;;;;;;0.35;0.35;;;;;;;10.26;72.33;99031.28;5029215;28;20056;-58
2024/02/29 11:18:24;;;;;;;0.30;0.30;;;;;;;10.12;67.44;99033.50;5029684;28;20500;-58
2024/02/29 11:21:06;;;;;;;0.30;0.30;;;;;;;9.68;73.49;99018.06;5027535;28;20041;-58
2024/02/29 11:23:36;;;;;;;0.25;0.25;;;;;;;10.34;71.09;98996.09;5026777;28;20087;-58
2024/02/29 11:26:03;;;;;;;0.30;0.30;;;;;;;10.12;68.26;98994.13;5032704;28;20508;-59
2024/02/29 11:28:38;;;;;;;0.20;0.20;;;;;;;10.58;67.69;98986.78;5034374;28;20582;-58
2024/02/29 11:31:12;;;;;;;0.20;0.20;;;;;;;10.60;68.63;98988.38;5032253;28;22279;-58
2024/02/29 11:33:39;;;;;;;0.20;0.20;;;;;;;10.30;68.42;98981.56;5037194;28;20855;-58
2024/02/29 11:36:06;;;;;;;0.30;0.30;;;;;;;10.79;67.31;98973.63;5035075;28;20834;-59
2024/02/29 11:38:34;;;;;;;0.20;0.20;;;;;;;10.86;65.20;98955.47;5034942;28;20573;-58